createdAt,value
2019-05-26T00:01:55.407Z,100369.59
2019-05-26T00:04:23.200Z,100385.87
2019-05-26T00:06:51.046Z,100384.92
2019-05-26T00:09:18.876Z,100380.93
2019-05-26T00:11:47.066Z,100383.03
2019-05-26T00:14:14.867Z,100375.98
2019-05-26T00:16:42.676Z,100381.04
2019-05-26T00:19:10.584Z,100375.03
2019-05-26T00:21:38.364Z,100378.64
2019-05-26T00:24:06.133Z,100376.25
2019-05-26T00:26:33.969Z,100372.52
2019-05-26T00:29:01.813Z,100369.91
2019-05-26T00:31:29.654Z,100370.27
2019-05-26T00:33:57.453Z,100366.56
2019-05-26T00:36:25.266Z,100359.14
2019-05-26T00:38:53.055Z,100361.30
2019-05-26T00:41:20.880Z,100363.52
2019-05-26T00:43:48.695Z,100369.37
2019-05-26T00:46:16.477Z,100366.21
2019-05-26T00:48:44.463Z,100359.25
2019-05-26T00:51:12.293Z,100362.58
2019-05-26T00:53:40.096Z,100372.26
2019-05-26T00:56:07.956Z,100365.69
2019-05-26T00:58:35.796Z,100366.86
2019-05-26T01:01:03.990Z,100365.78
2019-05-26T01:03:31.783Z,100364.75
2019-05-26T01:05:59.544Z,100364.01
2019-05-26T01:08:27.359Z,100362.71
2019-05-26T01:10:55.144Z,100358.31
2019-05-26T01:13:22.970Z,100364.02
2019-05-26T01:15:50.741Z,100362.52
2019-05-26T01:18:18.637Z,100366.20
2019-05-26T01:20:46.439Z,100359.17
2019-05-26T01:23:14.257Z,100358.52
2019-05-26T01:25:42.899Z,100363.23
2019-05-26T01:28:10.709Z,100353.02
2019-05-26T01:30:39.050Z,100352.64
2019-05-26T01:33:07.251Z,100351.02
2019-05-26T01:35:39.525Z,100348.22
2019-05-26T01:38:22.626Z,100346.88
2019-05-26T01:40:40.345Z,100345.52
2019-05-26T01:43:08.523Z,100341.78
2019-05-26T01:45:36.315Z,100347.80
2019-05-26T01:48:05.326Z,100341.55
2019-05-26T01:50:33.113Z,100343.00
2019-05-26T01:53:00.914Z,100342.53
2019-05-26T01:55:28.703Z,100348.03
2019-05-26T01:57:56.524Z,100344.72
2019-05-26T02:00:24.915Z,100346.30
2019-05-26T02:02:52.687Z,100349.37
2019-05-26T02:05:20.480Z,100344.43
2019-05-26T02:07:48.309Z,100343.52
2019-05-26T02:10:16.186Z,100355.02
2019-05-26T02:12:44.024Z,100346.02
2019-05-26T02:15:13.458Z,100347.07
2019-05-26T02:17:41.260Z,100341.03
2019-05-26T02:20:09.436Z,100333.71
2019-05-26T02:22:37.319Z,100330.47
2019-05-26T02:25:06.537Z,100328.31
2019-05-26T02:27:34.364Z,100325.06
2019-05-26T02:30:02.233Z,100329.80
2019-05-26T02:32:30.044Z,100323.50
2019-05-26T02:34:57.800Z,100323.87
2019-05-26T02:37:25.596Z,100318.84
2019-05-26T02:39:53.365Z,100323.58
2019-05-26T02:42:21.129Z,100320.56
2019-05-26T02:44:48.915Z,100323.04
2019-05-26T02:47:16.701Z,100310.08
2019-05-26T02:49:44.520Z,100309.77
2019-05-26T02:52:12.308Z,100310.01
2019-05-26T02:54:40.110Z,100303.17
2019-05-26T02:57:07.902Z,100309.49
2019-05-26T02:59:35.692Z,100313.52
2019-05-26T03:02:04.835Z,100319.38
2019-05-26T03:04:32.871Z,100317.64
2019-05-26T03:07:02.714Z,100312.99
2019-05-26T03:09:32.902Z,100324.38
2019-05-26T03:12:02.612Z,100318.11
2019-05-26T03:14:33.462Z,100322.57
2019-05-26T03:17:01.757Z,100318.73
2019-05-26T03:19:32.628Z,100318.46
2019-05-26T03:22:02.452Z,100319.33
2019-05-26T03:24:32.154Z,100317.27
2019-05-26T03:27:00.003Z,100316.56
2019-05-26T03:29:27.787Z,100310.27
2019-05-26T03:31:55.707Z,100315.98
2019-05-26T03:34:23.475Z,100314.87
2019-05-26T03:36:51.354Z,100315.53
2019-05-26T03:39:19.116Z,100314.11
2019-05-26T03:41:46.929Z,100313.73
2019-05-26T03:44:14.719Z,100319.88
2019-05-26T03:46:42.524Z,100319.06
2019-05-26T03:49:10.320Z,100314.92
2019-05-26T03:51:38.160Z,100316.38
2019-05-26T03:54:05.970Z,100320.25
2019-05-26T03:56:33.768Z,100322.51
2019-05-26T03:59:01.575Z,100315.41
2019-05-26T04:01:29.363Z,100316.20
2019-05-26T04:03:57.140Z,100316.14
2019-05-26T04:06:24.925Z,100314.11
2019-05-26T04:08:52.738Z,100318.03
2019-05-26T04:11:20.519Z,100321.63
2019-05-26T04:13:48.317Z,100320.80
2019-05-26T04:16:16.097Z,100316.76
2019-05-26T04:18:43.909Z,100309.99
2019-05-26T04:21:11.844Z,100310.01
2019-05-26T04:23:39.668Z,100305.44
2019-05-26T04:26:07.485Z,100311.42
2019-05-26T04:28:35.275Z,100310.59
2019-05-26T04:31:03.150Z,100304.59
2019-05-26T04:33:30.977Z,100317.95
2019-05-26T04:35:58.818Z,100318.99
2019-05-26T04:38:26.628Z,100315.31
2019-05-26T04:40:54.469Z,100322.16
2019-05-26T04:43:22.225Z,100326.93
2019-05-26T04:45:50.024Z,100330.75
2019-05-26T04:48:17.839Z,100325.48
2019-05-26T04:50:45.609Z,100323.77
2019-05-26T04:53:13.443Z,100324.79
2019-05-26T04:55:41.219Z,100324.18
2019-05-26T04:58:09.027Z,100319.65
2019-05-26T05:00:36.839Z,100328.50
2019-05-26T05:03:04.715Z,100332.78
2019-05-26T05:05:32.505Z,100338.51
2019-05-26T05:08:00.284Z,100327.36
2019-05-26T05:10:41.430Z,100329.28
2019-05-26T05:12:57.797Z,100327.19
2019-05-26T05:15:25.731Z,100323.48
2019-05-26T05:17:53.559Z,100321.78
2019-05-26T05:20:21.341Z,100315.97
2019-05-26T05:22:49.195Z,100316.07
2019-05-26T05:25:17.175Z,100313.77
2019-05-26T05:27:45.743Z,100309.66
2019-05-26T05:30:14.415Z,100301.88
2019-05-26T05:32:42.260Z,100296.67
2019-05-26T05:35:10.481Z,100303.11
2019-05-26T05:37:38.301Z,100300.16
2019-05-26T05:40:07.239Z,100302.48
2019-05-26T05:42:34.998Z,100305.34
2019-05-26T05:45:03.273Z,100308.94
2019-05-26T05:47:31.036Z,100303.52
2019-05-26T05:49:58.860Z,100301.92
2019-05-26T05:52:26.672Z,100294.51
2019-05-26T05:54:54.482Z,100294.14
2019-05-26T05:57:22.285Z,100293.11
2019-05-26T05:59:50.098Z,100290.70
2019-05-26T06:02:17.919Z,100291.66
2019-05-26T06:04:45.707Z,100290.75
2019-05-26T06:07:13.474Z,100285.94
2019-05-26T06:09:41.240Z,100287.09
2019-05-26T06:12:09.037Z,100281.66
2019-05-26T06:14:36.849Z,100277.44
2019-05-26T06:17:04.687Z,100275.63
2019-05-26T06:19:32.529Z,100273.84
2019-05-26T06:22:00.317Z,100271.15
2019-05-26T06:24:28.139Z,100267.95
2019-05-26T06:26:55.918Z,100264.98
2019-05-26T06:29:23.713Z,100270.33
2019-05-26T06:31:51.770Z,100262.17
2019-05-26T06:34:19.737Z,100255.25
2019-05-26T06:36:47.559Z,100257.06
2019-05-26T06:39:15.390Z,100248.09
2019-05-26T06:41:43.166Z,100247.73
2019-05-26T06:44:11.012Z,100246.50
2019-05-26T06:46:38.786Z,100250.59
2019-05-26T06:49:06.589Z,100245.11
2019-05-26T06:51:34.396Z,100244.50
2019-05-26T06:54:02.184Z,100247.36
2019-05-26T06:56:30.130Z,100249.27
2019-05-26T06:59:01.967Z,100256.09
2019-05-26T07:01:27.674Z,100246.35
2019-05-26T07:03:55.505Z,100247.56
2019-05-26T07:06:23.323Z,100262.55
2019-05-26T07:08:51.182Z,100259.21
2019-05-26T07:11:18.982Z,100249.81
2019-05-26T07:13:46.777Z,100246.49
2019-05-26T07:16:14.630Z,100249.98
2019-05-26T07:18:42.451Z,100245.72
2019-05-26T07:21:10.266Z,100242.12
2019-05-26T07:23:38.162Z,100246.69
2019-05-26T07:26:06.071Z,100249.14
2019-05-26T07:28:33.930Z,100247.83
2019-05-26T07:31:01.744Z,100247.69
2019-05-26T07:33:29.565Z,100251.13
2019-05-26T07:35:57.674Z,100241.13
2019-05-26T07:38:25.491Z,100247.84
2019-05-26T07:40:53.337Z,100235.64
2019-05-26T07:43:21.140Z,100241.20
2019-05-26T07:45:48.993Z,100235.89
2019-05-26T07:48:16.752Z,100236.89
2019-05-26T07:50:44.558Z,100237.78
2019-05-26T07:53:12.504Z,100233.02
2019-05-26T07:55:40.299Z,100225.77
2019-05-26T07:58:08.116Z,100221.36
2019-05-26T08:00:35.995Z,100223.92
2019-05-26T08:03:03.850Z,100216.61
2019-05-26T08:05:31.656Z,100216.61
2019-05-26T08:08:12.278Z,100216.89
2019-05-26T08:10:29.265Z,100217.83
2019-05-26T08:12:57.034Z,100217.28
2019-05-26T08:15:24.876Z,100216.66
2019-05-26T08:17:52.696Z,100218.08
2019-05-26T08:20:20.596Z,100214.65
2019-05-26T08:22:48.389Z,100214.69
2019-05-26T08:25:16.225Z,100206.04
2019-05-26T08:27:44.093Z,100208.64
2019-05-26T08:30:14.207Z,100206.64
2019-05-26T08:32:42.014Z,100192.70
2019-05-26T08:35:09.839Z,100190.31
2019-05-26T08:37:37.682Z,100188.30
2019-05-26T08:40:17.969Z,100177.59
2019-05-26T08:42:47.643Z,100171.66
2019-05-26T08:45:15.560Z,100167.67
2019-05-26T08:47:43.419Z,100164.80
2019-05-26T08:50:11.440Z,100167.23
2019-05-26T08:52:39.236Z,100162.55
2019-05-26T08:55:07.551Z,100164.74
2019-05-26T08:57:35.356Z,100170.00
2019-05-26T09:00:03.945Z,100156.47
2019-05-26T09:02:31.764Z,100153.80
2019-05-26T09:04:59.605Z,100156.75
2019-05-26T09:07:27.390Z,100156.67
2019-05-26T09:09:55.203Z,100156.36
2019-05-26T09:12:23.038Z,100147.50
2019-05-26T09:14:50.870Z,100142.11
2019-05-26T09:17:18.706Z,100147.61
2019-05-26T09:19:46.542Z,100142.27
2019-05-26T09:22:14.362Z,100135.72
2019-05-26T09:24:42.147Z,100142.04
2019-05-26T09:27:09.956Z,100124.84
2019-05-26T09:29:37.781Z,100131.42
2019-05-26T09:32:05.583Z,100125.12
2019-05-26T09:34:33.369Z,100122.03
2019-05-26T09:37:01.195Z,100119.57
2019-05-26T09:39:28.993Z,100129.80
2019-05-26T09:41:56.793Z,100113.24
2019-05-26T09:44:24.587Z,100112.02
2019-05-26T09:46:52.371Z,100125.39
2019-05-26T09:49:20.191Z,100115.48
2019-05-26T09:51:48.025Z,100123.53
2019-05-26T09:54:15.846Z,100121.14
2019-05-26T09:56:43.672Z,100118.05
2019-05-26T09:59:11.447Z,100109.28
2019-05-26T10:01:39.239Z,100108.17
2019-05-26T10:04:07.065Z,100100.97
2019-05-26T10:06:34.869Z,100102.69
2019-05-26T10:09:04.468Z,100094.84
2019-05-26T10:11:32.293Z,100094.04
2019-05-26T10:14:00.093Z,100094.98
2019-05-26T10:16:27.946Z,100091.53
2019-05-26T10:18:55.761Z,100094.00
2019-05-26T10:21:23.634Z,100085.95
2019-05-26T10:23:53.139Z,100087.89
2019-05-26T10:26:21.242Z,100080.85
2019-05-26T10:28:49.127Z,100086.94
2019-05-26T10:31:16.973Z,100096.66
2019-05-26T10:33:44.774Z,100088.55
2019-05-26T10:36:12.582Z,100086.81
2019-05-26T10:38:40.380Z,100081.08
2019-05-26T10:41:08.173Z,100089.44
2019-05-26T10:43:46.743Z,100079.83
2019-05-26T10:46:05.711Z,100073.48
2019-05-26T10:48:33.604Z,100069.35
2019-05-26T10:51:01.414Z,100070.05
2019-05-26T10:53:29.295Z,100074.47
2019-05-26T10:55:57.177Z,100076.61
2019-05-26T10:58:25.029Z,100064.71
2019-05-26T11:00:52.833Z,100070.58
2019-05-26T11:03:20.644Z,100065.02
2019-05-26T11:05:48.448Z,100057.31
2019-05-26T11:08:16.290Z,100074.02
2019-05-26T11:10:44.183Z,100056.48
2019-05-26T11:13:11.999Z,100044.24
2019-05-26T11:15:39.804Z,100052.45
2019-05-26T11:18:07.636Z,100037.48
2019-05-26T11:20:35.419Z,100027.47
2019-05-26T11:23:04.937Z,100038.91
2019-05-26T11:25:32.740Z,100029.74
2019-05-26T11:28:00.538Z,100028.74
2019-05-26T11:30:28.717Z,100030.89
2019-05-26T11:32:59.543Z,100027.26
2019-05-26T11:35:26.277Z,100021.09
2019-05-26T11:37:54.125Z,100010.85
2019-05-26T11:40:22.119Z,100018.58
2019-05-26T11:42:49.941Z,100007.69
2019-05-26T11:45:19.464Z,100010.66
2019-05-26T11:47:47.281Z,99997.28
2019-05-26T11:50:15.611Z,99988.08
2019-05-26T11:52:43.453Z,99988.58
2019-05-26T11:55:12.870Z,99986.84
2019-05-26T11:57:41.342Z,99987.11
2019-05-26T12:00:14.400Z,99981.34
2019-05-26T12:02:43.181Z,99984.56
2019-05-26T12:05:11.303Z,99977.51
2019-05-26T12:07:39.117Z,99972.83
2019-05-26T12:10:07.650Z,99971.48
2019-05-26T12:12:35.569Z,99963.63
2019-05-26T12:15:04.692Z,99950.87
2019-05-26T12:17:32.498Z,99953.19
2019-05-26T12:20:00.373Z,99951.05
2019-05-26T12:22:28.252Z,99961.05
2019-05-26T12:24:56.072Z,99946.54
2019-05-26T12:27:23.897Z,99954.08
2019-05-26T12:29:51.743Z,99952.26
2019-05-26T12:32:19.568Z,99945.41
2019-05-26T12:34:47.440Z,99938.44
2019-05-26T12:37:15.232Z,99944.18
2019-05-26T12:39:43.097Z,99933.55
2019-05-26T12:42:10.929Z,99920.10
2019-05-26T12:44:49.085Z,99936.90
2019-05-26T12:47:08.480Z,99937.88
2019-05-26T12:49:36.339Z,99938.28
2019-05-26T12:52:04.443Z,99931.87
2019-05-26T12:54:32.222Z,99932.98
2019-05-26T12:57:00.036Z,99932.42
2019-05-26T12:59:27.824Z,99937.55
2019-05-26T13:01:55.668Z,99931.23
2019-05-26T13:04:23.475Z,99919.23
2019-05-26T13:06:51.397Z,99930.33
2019-05-26T13:09:19.209Z,99925.39
2019-05-26T13:11:47.031Z,99924.98
2019-05-26T13:14:14.848Z,99923.80
2019-05-26T13:16:42.696Z,99913.31
2019-05-26T13:19:10.500Z,99918.13
2019-05-26T13:21:38.323Z,99923.49
2019-05-26T13:24:06.149Z,99921.38
2019-05-26T13:26:33.977Z,99917.31
2019-05-26T13:29:01.812Z,99920.08
2019-05-26T13:31:29.639Z,99908.23
2019-05-26T13:33:57.441Z,99922.19
2019-05-26T13:36:25.418Z,99917.20
2019-05-26T13:38:53.208Z,99900.27
2019-05-26T13:41:21.066Z,99896.88
2019-05-26T13:43:48.904Z,99914.70
2019-05-26T13:46:16.715Z,99910.08
2019-05-26T13:48:44.486Z,99908.10
2019-05-26T13:51:12.302Z,99911.99
2019-05-26T13:53:40.216Z,99897.80
2019-05-26T13:56:08.046Z,99905.22
2019-05-26T13:58:35.928Z,99898.98
2019-05-26T14:01:03.849Z,99895.72
2019-05-26T14:03:31.727Z,99897.03
2019-05-26T14:05:59.531Z,99899.97
2019-05-26T14:08:27.427Z,99893.69
2019-05-26T14:10:55.330Z,99887.01
2019-05-26T14:13:23.340Z,99889.14
2019-05-26T14:15:54.356Z,99891.98
2019-05-26T14:18:23.663Z,99896.71
2019-05-26T14:20:51.517Z,99895.52
2019-05-26T14:23:19.385Z,99890.19
2019-05-26T14:25:47.235Z,99887.82
2019-05-26T14:28:15.033Z,99886.66
2019-05-26T14:30:42.877Z,99873.44
2019-05-26T14:33:10.833Z,99877.25
2019-05-26T14:35:38.605Z,99877.75
2019-05-26T14:38:06.447Z,99886.45
2019-05-26T14:40:34.377Z,99881.91
2019-05-26T14:43:02.329Z,99878.32
2019-05-26T14:45:30.265Z,99881.56
2019-05-26T14:47:58.108Z,99868.83
2019-05-26T14:50:26.409Z,99865.73
2019-05-26T14:52:54.619Z,99858.95
2019-05-26T14:55:22.612Z,99865.06
2019-05-26T14:57:50.431Z,99868.69
2019-05-26T15:00:19.442Z,99862.97
2019-05-26T15:02:47.285Z,99875.24
2019-05-26T15:05:16.998Z,99865.30
2019-05-26T15:07:44.840Z,99868.34
2019-05-26T15:10:13.068Z,99859.54
2019-05-26T15:12:40.899Z,99861.92
2019-05-26T15:15:09.044Z,99856.44
2019-05-26T15:17:36.861Z,99853.53
2019-05-26T15:20:05.289Z,99858.83
2019-05-26T15:22:34.567Z,99861.44
2019-05-26T15:25:02.556Z,99853.86
2019-05-26T15:27:30.393Z,99848.11
2019-05-26T15:29:58.268Z,99850.02
2019-05-26T15:32:26.371Z,99847.08
2019-05-26T15:34:54.227Z,99841.19
2019-05-26T15:37:22.071Z,99844.55
2019-05-26T15:39:50.011Z,99845.27
2019-05-26T15:42:18.008Z,99851.58
2019-05-26T15:44:45.744Z,99838.12
2019-05-26T15:47:13.551Z,99836.89
2019-05-26T15:49:41.333Z,99832.26
2019-05-26T15:52:09.175Z,99829.59
2019-05-26T15:54:36.965Z,99830.64
2019-05-26T15:57:04.940Z,99826.27
2019-05-26T15:59:32.797Z,99832.47
2019-05-26T16:02:00.663Z,99825.17
2019-05-26T16:04:28.509Z,99814.69
2019-05-26T16:06:56.320Z,99817.05
2019-05-26T16:09:24.165Z,99813.98
2019-05-26T16:11:52.007Z,99817.20
2019-05-26T16:14:19.812Z,99816.80
2019-05-26T16:16:51.156Z,99818.27
2019-05-26T16:19:17.433Z,99810.95
2019-05-26T16:21:45.246Z,99806.88
2019-05-26T16:24:13.043Z,99805.99
2019-05-26T16:26:40.868Z,99804.67
2019-05-26T16:29:08.702Z,99809.09
2019-05-26T16:31:36.552Z,99809.68
2019-05-26T16:34:04.465Z,99812.48
2019-05-26T16:36:32.334Z,99807.55
2019-05-26T16:39:00.162Z,99811.45
2019-05-26T16:41:28.017Z,99810.41
2019-05-26T16:43:55.900Z,99801.38
2019-05-26T16:46:23.819Z,99795.59
2019-05-26T16:48:54.596Z,99803.06
2019-05-26T16:51:21.378Z,99799.75
2019-05-26T16:53:49.260Z,99803.25
2019-05-26T16:56:17.092Z,99802.34
2019-05-26T16:58:44.918Z,99799.45
2019-05-26T17:01:12.715Z,99798.97
2019-05-26T17:03:40.629Z,99800.19
2019-05-26T17:06:08.509Z,99800.81
2019-05-26T17:08:36.383Z,99800.73
2019-05-26T17:11:04.375Z,99794.30
2019-05-26T17:13:33.142Z,99795.98
2019-05-26T17:16:01.217Z,99802.63
2019-05-26T17:18:29.044Z,99805.89
2019-05-26T17:20:56.912Z,99807.27
2019-05-26T17:23:24.798Z,99809.41
2019-05-26T17:25:52.670Z,99801.99
2019-05-26T17:28:20.479Z,99805.12
2019-05-26T17:30:48.374Z,99805.48
2019-05-26T17:33:16.164Z,99800.29
2019-05-26T17:35:43.949Z,99799.81
2019-05-26T17:38:11.907Z,99803.48
2019-05-26T17:40:39.717Z,99799.73
2019-05-26T17:43:07.599Z,99794.84
2019-05-26T17:45:35.409Z,99794.96
2019-05-26T17:48:03.207Z,99789.80
2019-05-26T17:50:31.046Z,99798.48
2019-05-26T17:52:58.859Z,99795.27
2019-05-26T17:55:26.666Z,99793.52
2019-05-26T17:57:54.497Z,99787.89
2019-05-26T18:00:22.426Z,99791.73
2019-05-26T18:02:50.287Z,99786.91
2019-05-26T18:05:18.165Z,99782.21
2019-05-26T18:07:45.925Z,99782.89
2019-05-26T18:10:13.977Z,99783.75
2019-05-26T18:12:41.748Z,99781.44
2019-05-26T18:15:10.552Z,99783.68
2019-05-26T18:17:46.914Z,99781.13
2019-05-26T18:20:09.133Z,99787.96
2019-05-26T18:22:36.959Z,99778.34
2019-05-26T18:25:05.244Z,99775.34
2019-05-26T18:27:33.035Z,99776.33
2019-05-26T18:30:00.831Z,99774.55
2019-05-26T18:32:28.672Z,99774.36
2019-05-26T18:34:56.463Z,99770.13
2019-05-26T18:37:24.288Z,99773.30
2019-05-26T18:39:52.125Z,99773.16
2019-05-26T18:42:21.366Z,99771.90
2019-05-26T18:44:51.877Z,99768.13
2019-05-26T18:47:19.705Z,99768.44
2019-05-26T18:49:47.539Z,99769.45
2019-05-26T18:52:15.399Z,99765.80
2019-05-26T18:54:43.205Z,99764.81
2019-05-26T18:57:11.012Z,99769.31
2019-05-26T18:59:38.833Z,99768.19
2019-05-26T19:02:06.721Z,99771.03
2019-05-26T19:04:34.544Z,99766.58
2019-05-26T19:07:02.400Z,99761.02
2019-05-26T19:09:30.218Z,99759.85
2019-05-26T19:11:58.083Z,99757.28
2019-05-26T19:14:25.881Z,99761.29
2019-05-26T19:16:53.711Z,99762.27
2019-05-26T19:19:21.561Z,99762.27
2019-05-26T19:21:49.438Z,99765.69
2019-05-26T19:24:17.268Z,99765.56
2019-05-26T19:26:45.103Z,99763.86
2019-05-26T19:29:12.890Z,99761.75
2019-05-26T19:31:40.671Z,99762.98
2019-05-26T19:34:08.523Z,99762.98
2019-05-26T19:36:36.321Z,99767.05
2019-05-26T19:39:07.927Z,99761.38
2019-05-26T19:41:38.981Z,99762.85
2019-05-26T19:44:06.523Z,99762.36
2019-05-26T19:46:34.339Z,99766.99
2019-05-26T19:49:02.133Z,99766.42
2019-05-26T19:51:29.983Z,99758.89
2019-05-26T19:53:57.829Z,99756.16
2019-05-26T19:56:25.915Z,99753.98
2019-05-26T19:58:53.773Z,99760.72
2019-05-26T20:01:21.635Z,99754.34
2019-05-26T20:03:49.470Z,99756.91
2019-05-26T20:06:17.300Z,99750.77
2019-05-26T20:08:45.225Z,99758.13
2019-05-26T20:11:13.059Z,99751.83
2019-05-26T20:13:41.119Z,99754.39
2019-05-26T20:16:08.917Z,99748.70
2019-05-26T20:18:36.785Z,99756.22
2019-05-26T20:21:04.698Z,99755.55
2019-05-26T20:23:32.528Z,99757.27
2019-05-26T20:26:00.324Z,99749.22
2019-05-26T20:28:28.152Z,99755.39
2019-05-26T20:30:55.948Z,99753.00
2019-05-26T20:33:23.798Z,99752.36
2019-05-26T20:35:51.655Z,99749.05
2019-05-26T20:38:19.475Z,99743.92
2019-05-26T20:40:47.278Z,99747.08
2019-05-26T20:43:15.117Z,99744.28
2019-05-26T20:45:42.934Z,99744.18
2019-05-26T20:48:10.779Z,99752.14
2019-05-26T20:50:38.659Z,99747.82
2019-05-26T20:53:06.476Z,99746.97
2019-05-26T20:55:34.259Z,99748.86
2019-05-26T20:58:02.064Z,99745.05
2019-05-26T21:00:30.239Z,99744.91
2019-05-26T21:02:58.174Z,99742.17
2019-05-26T21:05:25.992Z,99739.33
2019-05-26T21:07:53.800Z,99743.55
2019-05-26T21:10:21.663Z,99741.47
2019-05-26T21:12:50.275Z,99741.80
2019-05-26T21:15:18.279Z,99745.19
2019-05-26T21:17:46.098Z,99740.27
2019-05-26T21:20:15.007Z,99742.50
2019-05-26T21:22:42.825Z,99744.41
2019-05-26T21:25:12.562Z,99737.09
2019-05-26T21:27:40.349Z,99741.73
2019-05-26T21:30:09.226Z,99728.90
2019-05-26T21:32:36.979Z,99737.19
2019-05-26T21:35:05.407Z,99737.09
2019-05-26T21:37:33.231Z,99732.30
2019-05-26T21:40:01.047Z,99732.32
2019-05-26T21:42:28.819Z,99727.98
2019-05-26T21:44:56.635Z,99732.56
2019-05-26T21:47:24.469Z,99733.64
2019-05-26T21:50:31.715Z,99728.30
2019-05-26T21:52:59.515Z,99734.73
2019-05-26T21:55:27.304Z,99727.07
2019-05-26T21:57:55.104Z,99723.72
2019-05-26T22:00:26.324Z,99718.84
2019-05-26T22:02:54.109Z,99719.42
2019-05-26T22:05:21.981Z,99709.08
2019-05-26T22:07:49.809Z,99717.92
2019-05-26T22:10:17.946Z,99714.19
2019-05-26T22:12:45.713Z,99710.63
2019-05-26T22:15:13.563Z,99708.19
2019-05-26T22:17:41.349Z,99707.69
2019-05-26T22:20:09.439Z,99713.33
2019-05-26T22:22:37.230Z,99712.53
2019-05-26T22:25:05.144Z,99704.38
2019-05-26T22:27:32.919Z,99701.47
2019-05-26T22:30:00.767Z,99701.16
2019-05-26T22:32:28.551Z,99699.25
2019-05-26T22:34:56.393Z,99691.95
2019-05-26T22:37:24.195Z,99690.88
2019-05-26T22:39:52.010Z,99695.00
2019-05-26T22:42:19.809Z,99691.70
2019-05-26T22:44:47.631Z,99697.27
2019-05-26T22:47:15.469Z,99688.86
2019-05-26T22:49:43.222Z,99682.81
2019-05-26T22:52:11.028Z,99689.37
2019-05-26T22:54:38.800Z,99688.27
2019-05-26T22:57:06.629Z,99688.30
2019-05-26T22:59:34.505Z,99687.72
2019-05-26T23:02:02.372Z,99695.70
2019-05-26T23:04:30.182Z,99695.70
2019-05-26T23:06:57.981Z,99685.56
2019-05-26T23:09:25.733Z,99682.04
2019-05-26T23:11:53.528Z,99681.47
2019-05-26T23:14:21.301Z,99681.50
2019-05-26T23:16:49.108Z,99678.84
2019-05-26T23:19:19.822Z,99675.81
2019-05-26T23:21:46.659Z,99679.10
2019-05-26T23:24:14.439Z,99672.87
2019-05-26T23:26:42.233Z,99676.42
2019-05-26T23:29:10.006Z,99675.83
2019-05-26T23:31:37.785Z,99676.98
2019-05-26T23:34:05.626Z,99678.04
2019-05-26T23:36:33.441Z,99671.00
2019-05-26T23:39:01.317Z,99672.33
2019-05-26T23:41:29.486Z,99678.61
2019-05-26T23:43:57.312Z,99666.60
2019-05-26T23:46:25.120Z,99675.07
2019-05-26T23:48:52.892Z,99671.79
2019-05-26T23:51:20.687Z,99669.06
2019-05-26T23:53:48.454Z,99666.61
2019-05-26T23:56:16.256Z,99669.02
2019-05-26T23:58:44.061Z,99668.45
